sensor_id;sensor_type;location;lat;lon;timestamp;P1;durP1;ratioP1;P2;durP2;ratioP2
11269;SDS011;5692;48.956;9.200;2023-02-26T00:00:40;118.20;;;112.50;;
11269;SDS011;5692;48.956;9.200;2023-02-26T00:03:06;119.43;;;113.72;;
11269;SDS011;5692;48.956;9.200;2023-02-26T00:05:32;126.95;;;120.85;;
11269;SDS011;5692;48.956;9.200;2023-02-26T00:07:58;131.23;;;124.93;;
11269;SDS011;5692;48.956;9.200;2023-02-26T00:10:24;129.75;;;123.55;;
11269;SDS011;5692;48.956;9.200;2023-02-26T00:12:50;126.20;;;120.13;;
11269;SDS011;5692;48.956;9.200;2023-02-26T00:15:16;122.05;;;116.15;;
11269;SDS011;5692;48.956;9.200;2023-02-26T00:18:00;134.00;;;127.60;;
11269;SDS011;5692;48.956;9.200;2023-02-26T00:20:27;127.35;;;121.25;;
11269;SDS011;5692;48.956;9.200;2023-02-26T00:22:53;130.40;;;124.13;;
11269;SDS011;5692;48.956;9.200;2023-02-26T00:25:19;129.95;;;123.70;;
11269;SDS011;5692;48.956;9.200;2023-02-26T00:27:45;117.07;;;111.45;;
11269;SDS011;5692;48.956;9.200;2023-02-26T00:30:11;125.50;;;119.50;;
11269;SDS011;5692;48.956;9.200;2023-02-26T00:32:38;126.15;;;120.05;;
11269;SDS011;5692;48.956;9.200;2023-02-26T00:35:08;132.73;;;126.35;;
11269;SDS011;5692;48.956;9.200;2023-02-26T00:42:52;124.80;;;118.80;;
11269;SDS011;5692;48.956;9.200;2023-02-26T00:45:19;117.65;;;112.00;;
11269;SDS011;5692;48.956;9.200;2023-02-26T00:47:50;114.85;;;109.35;;
11269;SDS011;5692;48.956;9.200;2023-02-26T00:55:22;117.60;;;111.95;;
11269;SDS011;5692;48.956;9.200;2023-02-26T00:57:48;122.93;;;117.03;;
11269;SDS011;5692;48.956;9.200;2023-02-26T01:00:14;112.50;;;107.10;;
11269;SDS011;5692;48.956;9.200;2023-02-26T01:02:41;109.60;;;104.32;;
11269;SDS011;5692;48.956;9.200;2023-02-26T01:05:08;116.72;;;111.13;;
11269;SDS011;5692;48.956;9.200;2023-02-26T01:07:43;113.80;;;108.32;;
11269;SDS011;5692;48.956;9.200;2023-02-26T01:10:11;108.22;;;103.03;;
11269;SDS011;5692;48.956;9.200;2023-02-26T01:12:38;113.53;;;108.07;;
11269;SDS011;5692;48.956;9.200;2023-02-26T01:15:06;107.07;;;101.93;;
11269;SDS011;5692;48.956;9.200;2023-02-26T01:17:35;109.60;;;104.30;;
11269;SDS011;5692;48.956;9.200;2023-02-26T01:20:13;103.95;;;98.95;;
11269;SDS011;5692;48.956;9.200;2023-02-26T01:23:03;105.10;;;100.05;;
11269;SDS011;5692;48.956;9.200;2023-02-26T01:28:12;106.63;;;101.53;;
11269;SDS011;5692;48.956;9.200;2023-02-26T01:30:38;107.10;;;101.95;;
11269;SDS011;5692;48.956;9.200;2023-02-26T01:33:15;111.55;;;106.18;;
11269;SDS011;5692;48.956;9.200;2023-02-26T01:35:57;113.47;;;108.03;;
11269;SDS011;5692;48.956;9.200;2023-02-26T01:46:21;112.55;;;107.15;;
11269;SDS011;5692;48.956;9.200;2023-02-26T01:48:50;107.93;;;102.72;;
11269;SDS011;5692;48.956;9.200;2023-02-26T01:51:16;113.78;;;108.30;;
11269;SDS011;5692;48.956;9.200;2023-02-26T01:53:43;108.30;;;103.10;;
11269;SDS011;5692;48.956;9.200;2023-02-26T01:56:12;106.75;;;101.65;;
11269;SDS011;5692;48.956;9.200;2023-02-26T01:58:42;108.93;;;103.72;;
11269;SDS011;5692;48.956;9.200;2023-02-26T02:01:08;110.85;;;105.53;;
11269;SDS011;5692;48.956;9.200;2023-02-26T02:03:36;112.03;;;106.65;;
11269;SDS011;5692;48.956;9.200;2023-02-26T02:06:04;118.47;;;112.78;;
11269;SDS011;5692;48.956;9.200;2023-02-26T02:08:31;105.18;;;100.10;;
11269;SDS011;5692;48.956;9.200;2023-02-26T02:10:59;106.68;;;101.57;;
11269;SDS011;5692;48.956;9.200;2023-02-26T02:13:34;104.82;;;99.82;;
11269;SDS011;5692;48.956;9.200;2023-02-26T02:16:09;99.32;;;94.53;;
11269;SDS011;5692;48.956;9.200;2023-02-26T02:18:39;103.53;;;98.53;;
11269;SDS011;5692;48.956;9.200;2023-02-26T02:24:05;101.97;;;97.07;;
11269;SDS011;5692;48.956;9.200;2023-02-26T02:31:27;103.88;;;98.88;;
11269;SDS011;5692;48.956;9.200;2023-02-26T02:39:02;96.22;;;91.60;;
11269;SDS011;5692;48.956;9.200;2023-02-26T02:41:31;99.00;;;94.25;;
11269;SDS011;5692;48.956;9.200;2023-02-26T02:43:59;100.28;;;95.47;;
11269;SDS011;5692;48.956;9.200;2023-02-26T02:46:28;98.82;;;94.03;;
11269;SDS011;5692;48.956;9.200;2023-02-26T02:49:00;98.80;;;94.00;;
11269;SDS011;5692;48.956;9.200;2023-02-26T02:51:29;103.88;;;98.88;;
11269;SDS011;5692;48.956;9.200;2023-02-26T02:54:05;102.72;;;97.80;;
11269;SDS011;5692;48.956;9.200;2023-02-26T02:56:46;94.97;;;90.38;;
11269;SDS011;5692;48.956;9.200;2023-02-26T03:01:42;91.90;;;87.50;;
11269;SDS011;5692;48.956;9.200;2023-02-26T03:04:09;94.80;;;90.22;;
11269;SDS011;5692;48.956;9.200;2023-02-26T03:06:36;93.32;;;88.82;;
11269;SDS011;5692;48.956;9.200;2023-02-26T03:09:03;87.55;;;83.35;;
11269;SDS011;5692;48.956;9.200;2023-02-26T03:11:30;95.22;;;90.63;;
11269;SDS011;5692;48.956;9.200;2023-02-26T03:13:56;95.72;;;91.10;;
11269;SDS011;5692;48.956;9.200;2023-02-26T03:21:57;97.63;;;92.93;;
11269;SDS011;5692;48.956;9.200;2023-02-26T03:27:13;92.03;;;87.60;;
11269;SDS011;5692;48.956;9.200;2023-02-26T03:32:35;89.57;;;85.28;;
11269;SDS011;5692;48.956;9.200;2023-02-26T03:37:45;93.47;;;88.97;;
11269;SDS011;5692;48.956;9.200;2023-02-26T03:40:18;97.90;;;93.20;;
11269;SDS011;5692;48.956;9.200;2023-02-26T03:43:19;91.00;;;86.60;;
11269;SDS011;5692;48.956;9.200;2023-02-26T03:45:38;97.20;;;92.50;;
11269;SDS011;5692;48.956;9.200;2023-02-26T03:48:06;89.50;;;85.20;;
11269;SDS011;5692;48.956;9.200;2023-02-26T03:52:59;93.32;;;88.82;;
11269;SDS011;5692;48.956;9.200;2023-02-26T03:57:57;90.72;;;86.35;;
11269;SDS011;5692;48.956;9.200;2023-02-26T04:00:24;94.03;;;89.53;;
11269;SDS011;5692;48.956;9.200;2023-02-26T04:05:20;97.22;;;92.53;;
11269;SDS011;5692;48.956;9.200;2023-02-26T04:07:48;100.05;;;95.25;;
11269;SDS011;5692;48.956;9.200;2023-02-26T04:10:16;91.35;;;86.95;;
11269;SDS011;5692;48.956;9.200;2023-02-26T04:12:46;98.53;;;93.80;;
11269;SDS011;5692;48.956;9.200;2023-02-26T04:15:12;96.18;;;91.57;;
11269;SDS011;5692;48.956;9.200;2023-02-26T04:17:39;98.78;;;94.03;;
11269;SDS011;5692;48.956;9.200;2023-02-26T04:20:05;98.45;;;93.75;;
11269;SDS011;5692;48.956;9.200;2023-02-26T04:22:36;96.93;;;92.25;;
11269;SDS011;5692;48.956;9.200;2023-02-26T04:25:03;99.03;;;94.22;;
11269;SDS011;5692;48.956;9.200;2023-02-26T04:27:29;98.47;;;93.78;;
11269;SDS011;5692;48.956;9.200;2023-02-26T04:29:55;98.47;;;93.75;;
11269;SDS011;5692;48.956;9.200;2023-02-26T04:32:21;96.65;;;92.00;;
11269;SDS011;5692;48.956;9.200;2023-02-26T04:34:47;101.45;;;96.55;;
11269;SDS011;5692;48.956;9.200;2023-02-26T04:37:13;104.75;;;99.70;;
11269;SDS011;5692;48.956;9.200;2023-02-26T04:39:39;106.47;;;101.35;;
11269;SDS011;5692;48.956;9.200;2023-02-26T04:42:05;87.75;;;83.53;;
11269;SDS011;5692;48.956;9.200;2023-02-26T04:44:32;93.13;;;88.63;;
11269;SDS011;5692;48.956;9.200;2023-02-26T04:46:58;98.45;;;93.75;;
11269;SDS011;5692;48.956;9.200;2023-02-26T04:49:24;102.00;;;97.07;;
11269;SDS011;5692;48.956;9.200;2023-02-26T04:51:50;93.10;;;88.60;;
11269;SDS011;5692;48.956;9.200;2023-02-26T04:54:16;100.00;;;95.18;;
11269;SDS011;5692;48.956;9.200;2023-02-26T04:56:42;94.55;;;90.00;;
11269;SDS011;5692;48.956;9.200;2023-02-26T04:59:08;83.60;;;79.60;;
11269;SDS011;5692;48.956;9.200;2023-02-26T05:01:34;91.82;;;87.43;;
11269;SDS011;5692;48.956;9.200;2023-02-26T05:04:00;93.15;;;88.65;;
11269;SDS011;5692;48.956;9.200;2023-02-26T05:06:26;91.53;;;87.13;;
11269;SDS011;5692;48.956;9.200;2023-02-26T05:08:52;98.25;;;93.55;;
11269;SDS011;5692;48.956;9.200;2023-02-26T05:11:18;96.47;;;91.88;;
11269;SDS011;5692;48.956;9.200;2023-02-26T05:13:44;99.68;;;94.88;;
11269;SDS011;5692;48.956;9.200;2023-02-26T05:16:16;93.28;;;88.78;;
11269;SDS011;5692;48.956;9.200;2023-02-26T05:18:42;96.13;;;91.53;;
11269;SDS011;5692;48.956;9.200;2023-02-26T05:21:08;97.85;;;93.15;;
11269;SDS011;5692;48.956;9.200;2023-02-26T05:23:34;102.22;;;97.32;;
11269;SDS011;5692;48.956;9.200;2023-02-26T05:26:00;98.90;;;94.10;;
11269;SDS011;5692;48.956;9.200;2023-02-26T05:28:26;103.65;;;98.65;;
11269;SDS011;5692;48.956;9.200;2023-02-26T05:30:54;103.10;;;98.15;;
11269;SDS011;5692;48.956;9.200;2023-02-26T05:33:21;97.53;;;92.82;;
11269;SDS011;5692;48.956;9.200;2023-02-26T05:35:47;95.00;;;90.40;;
11269;SDS011;5692;48.956;9.200;2023-02-26T05:38:13;92.00;;;87.57;;
11269;SDS011;5692;48.956;9.200;2023-02-26T05:40:39;90.97;;;86.57;;
11269;SDS011;5692;48.956;9.200;2023-02-26T05:43:05;94.20;;;89.68;;
11269;SDS011;5692;48.956;9.200;2023-02-26T05:45:32;96.30;;;91.68;;
11269;SDS011;5692;48.956;9.200;2023-02-26T05:47:58;99.20;;;94.40;;
11269;SDS011;5692;48.956;9.200;2023-02-26T05:50:24;94.60;;;90.00;;
11269;SDS011;5692;48.956;9.200;2023-02-26T05:52:51;91.22;;;86.82;;
11269;SDS011;5692;48.956;9.200;2023-02-26T05:55:17;95.90;;;91.30;;
11269;SDS011;5692;48.956;9.200;2023-02-26T05:57:43;94.63;;;90.07;;
11269;SDS011;5692;48.956;9.200;2023-02-26T06:00:09;86.30;;;82.10;;
11269;SDS011;5692;48.956;9.200;2023-02-26T06:02:35;99.93;;;95.13;;
11269;SDS011;5692;48.956;9.200;2023-02-26T06:05:01;99.15;;;94.35;;
11269;SDS011;5692;48.956;9.200;2023-02-26T06:07:28;95.97;;;91.35;;
11269;SDS011;5692;48.956;9.200;2023-02-26T06:09:54;91.75;;;87.35;;
11269;SDS011;5692;48.956;9.200;2023-02-26T06:12:20;88.47;;;84.22;;
11269;SDS011;5692;48.956;9.200;2023-02-26T06:14:49;90.32;;;85.97;;
11269;SDS011;5692;48.956;9.200;2023-02-26T06:17:15;94.50;;;89.95;;
11269;SDS011;5692;48.956;9.200;2023-02-26T06:19:41;100.10;;;95.30;;
11269;SDS011;5692;48.956;9.200;2023-02-26T06:22:09;101.10;;;96.25;;
11269;SDS011;5692;48.956;9.200;2023-02-26T06:24:35;95.93;;;91.32;;
11269;SDS011;5692;48.956;9.200;2023-02-26T06:27:01;92.03;;;87.60;;
11269;SDS011;5692;48.956;9.200;2023-02-26T06:29:30;92.72;;;88.22;;
11269;SDS011;5692;48.956;9.200;2023-02-26T06:31:56;92.68;;;88.18;;
11269;SDS011;5692;48.956;9.200;2023-02-26T06:34:22;93.68;;;89.18;;
11269;SDS011;5692;48.956;9.200;2023-02-26T06:36:48;90.28;;;85.93;;
11269;SDS011;5692;48.956;9.200;2023-02-26T06:39:14;90.90;;;86.50;;
11269;SDS011;5692;48.956;9.200;2023-02-26T06:41:40;98.03;;;93.32;;
11269;SDS011;5692;48.956;9.200;2023-02-26T06:44:06;88.60;;;84.30;;
11269;SDS011;5692;48.956;9.200;2023-02-26T06:46:32;77.55;;;73.82;;
11269;SDS011;5692;48.956;9.200;2023-02-26T06:49:02;93.03;;;88.53;;
11269;SDS011;5692;48.956;9.200;2023-02-26T06:51:28;90.82;;;86.43;;
11269;SDS011;5692;48.956;9.200;2023-02-26T06:53:55;88.68;;;84.38;;
11269;SDS011;5692;48.956;9.200;2023-02-26T06:56:21;84.50;;;80.40;;
11269;SDS011;5692;48.956;9.200;2023-02-26T06:58:47;91.55;;;87.15;;
11269;SDS011;5692;48.956;9.200;2023-02-26T07:01:13;96.88;;;92.18;;
11269;SDS011;5692;48.956;9.200;2023-02-26T07:03:39;95.47;;;90.88;;
11269;SDS011;5692;48.956;9.200;2023-02-26T07:06:06;88.05;;;83.82;;
11269;SDS011;5692;48.956;9.200;2023-02-26T07:08:33;92.05;;;87.65;;
11269;SDS011;5692;48.956;9.200;2023-02-26T07:11:02;88.75;;;84.47;;
11269;SDS011;5692;48.956;9.200;2023-02-26T07:13:28;88.85;;;84.55;;
11269;SDS011;5692;48.956;9.200;2023-02-26T07:15:54;95.82;;;91.22;;
11269;SDS011;5692;48.956;9.200;2023-02-26T07:18:20;90.88;;;86.47;;
11269;SDS011;5692;48.956;9.200;2023-02-26T07:20:48;94.30;;;89.80;;
11269;SDS011;5692;48.956;9.200;2023-02-26T07:23:14;85.78;;;81.65;;
11269;SDS011;5692;48.956;9.200;2023-02-26T07:25:40;93.55;;;89.05;;
11269;SDS011;5692;48.956;9.200;2023-02-26T07:28:06;86.55;;;82.35;;
11269;SDS011;5692;48.956;9.200;2023-02-26T07:30:32;84.80;;;80.70;;
11269;SDS011;5692;48.956;9.200;2023-02-26T07:32:58;82.50;;;78.50;;
11269;SDS011;5692;48.956;9.200;2023-02-26T07:35:24;87.60;;;83.38;;
11269;SDS011;5692;48.956;9.200;2023-02-26T07:37:50;85.68;;;81.55;;
11269;SDS011;5692;48.956;9.200;2023-02-26T07:40:17;91.60;;;87.20;;
11269;SDS011;5692;48.956;9.200;2023-02-26T07:42:46;87.03;;;82.82;;
11269;SDS011;5692;48.956;9.200;2023-02-26T07:45:12;90.65;;;86.25;;
11269;SDS011;5692;48.956;9.200;2023-02-26T07:47:41;94.47;;;89.93;;
11269;SDS011;5692;48.956;9.200;2023-02-26T07:50:07;98.03;;;93.32;;
11269;SDS011;5692;48.956;9.200;2023-02-26T07:52:34;97.57;;;92.88;;
11269;SDS011;5692;48.956;9.200;2023-02-26T07:55:00;95.72;;;91.13;;
11269;SDS011;5692;48.956;9.200;2023-02-26T07:57:26;98.63;;;93.88;;
11269;SDS011;5692;48.956;9.200;2023-02-26T07:59:52;98.25;;;93.55;;
11269;SDS011;5692;48.956;9.200;2023-02-26T08:02:18;93.32;;;88.82;;
11269;SDS011;5692;48.956;9.200;2023-02-26T08:04:47;104.07;;;99.07;;
11269;SDS011;5692;48.956;9.200;2023-02-26T08:07:13;100.05;;;95.22;;
11269;SDS011;5692;48.956;9.200;2023-02-26T08:09:39;97.55;;;92.85;;
11269;SDS011;5692;48.956;9.200;2023-02-26T08:12:08;108.93;;;103.68;;
11269;SDS011;5692;48.956;9.200;2023-02-26T08:14:36;104.88;;;99.82;;
11269;SDS011;5692;48.956;9.200;2023-02-26T08:17:05;103.22;;;98.25;;
11269;SDS011;5692;48.956;9.200;2023-02-26T08:19:31;103.10;;;98.13;;
11269;SDS011;5692;48.956;9.200;2023-02-26T08:21:57;101.53;;;96.63;;
11269;SDS011;5692;48.956;9.200;2023-02-26T08:24:23;106.22;;;101.13;;
11269;SDS011;5692;48.956;9.200;2023-02-26T08:26:49;107.90;;;102.70;;
11269;SDS011;5692;48.956;9.200;2023-02-26T08:29:15;109.20;;;103.95;;
11269;SDS011;5692;48.956;9.200;2023-02-26T08:31:44;111.55;;;106.18;;
11269;SDS011;5692;48.956;9.200;2023-02-26T08:34:10;114.57;;;109.07;;
11269;SDS011;5692;48.956;9.200;2023-02-26T08:36:38;121.40;;;115.55;;
11269;SDS011;5692;48.956;9.200;2023-02-26T08:39:07;117.72;;;112.07;;
11269;SDS011;5692;48.956;9.200;2023-02-26T08:41:33;126.40;;;120.32;;
11269;SDS011;5692;48.956;9.200;2023-02-26T08:44:00;126.45;;;120.35;;
11269;SDS011;5692;48.956;9.200;2023-02-26T08:46:26;116.72;;;111.13;;
11269;SDS011;5692;48.956;9.200;2023-02-26T08:48:52;118.85;;;113.15;;
11269;SDS011;5692;48.956;9.200;2023-02-26T08:51:21;121.32;;;115.53;;
11269;SDS011;5692;48.956;9.200;2023-02-26T08:53:48;125.78;;;119.72;;
11269;SDS011;5692;48.956;9.200;2023-02-26T08:56:17;127.85;;;121.72;;
11269;SDS011;5692;48.956;9.200;2023-02-26T08:58:43;120.30;;;114.53;;
11269;SDS011;5692;48.956;9.200;2023-02-26T09:01:09;122.93;;;117.03;;
11269;SDS011;5692;48.956;9.200;2023-02-26T09:03:35;119.97;;;114.22;;
11269;SDS011;5692;48.956;9.200;2023-02-26T09:06:01;124.35;;;118.35;;
11269;SDS011;5692;48.956;9.200;2023-02-26T09:08:29;128.73;;;122.53;;
11269;SDS011;5692;48.956;9.200;2023-02-26T09:11:00;124.95;;;118.95;;
11269;SDS011;5692;48.956;9.200;2023-02-26T09:13:27;105.38;;;100.30;;
11269;SDS011;5692;48.956;9.200;2023-02-26T09:15:53;112.20;;;106.80;;
11269;SDS011;5692;48.956;9.200;2023-02-26T09:18:20;111.72;;;106.32;;
11269;SDS011;5692;48.956;9.200;2023-02-26T09:20:46;99.38;;;94.57;;
11269;SDS011;5692;48.956;9.200;2023-02-26T09:23:12;111.18;;;105.85;;
11269;SDS011;5692;48.956;9.200;2023-02-26T09:25:38;113.95;;;108.47;;
11269;SDS011;5692;48.956;9.200;2023-02-26T09:28:04;117.72;;;112.07;;
11269;SDS011;5692;48.956;9.200;2023-02-26T09:30:30;112.95;;;107.55;;
11269;SDS011;5692;48.956;9.200;2023-02-26T09:32:56;112.78;;;107.35;;
11269;SDS011;5692;48.956;9.200;2023-02-26T09:35:23;112.32;;;106.93;;
11269;SDS011;5692;48.956;9.200;2023-02-26T09:37:49;110.25;;;104.95;;
11269;SDS011;5692;48.956;9.200;2023-02-26T09:40:23;107.30;;;102.15;;
11269;SDS011;5692;48.956;9.200;2023-02-26T09:45:37;116.60;;;111.00;;
11269;SDS011;5692;48.956;9.200;2023-02-26T09:48:05;115.32;;;109.78;;
11269;SDS011;5692;48.956;9.200;2023-02-26T09:50:39;109.43;;;104.15;;
11269;SDS011;5692;48.956;9.200;2023-02-26T09:55:35;114.40;;;108.90;;
11269;SDS011;5692;48.956;9.200;2023-02-26T09:58:05;113.70;;;108.20;;
11269;SDS011;5692;48.956;9.200;2023-02-26T10:00:43;116.53;;;110.93;;
11269;SDS011;5692;48.956;9.200;2023-02-26T10:03:48;110.35;;;105.05;;
11269;SDS011;5692;48.956;9.200;2023-02-26T10:06:14;119.32;;;113.63;;
11269;SDS011;5692;48.956;9.200;2023-02-26T10:11:30;121.85;;;116.00;;
11269;SDS011;5692;48.956;9.200;2023-02-26T10:14:03;111.82;;;106.43;;
11269;SDS011;5692;48.956;9.200;2023-02-26T10:16:32;117.25;;;111.65;;
11269;SDS011;5692;48.956;9.200;2023-02-26T10:19:03;114.70;;;109.20;;
11269;SDS011;5692;48.956;9.200;2023-02-26T10:21:33;120.50;;;114.70;;
11269;SDS011;5692;48.956;9.200;2023-02-26T10:24:03;111.70;;;106.32;;
11269;SDS011;5692;48.956;9.200;2023-02-26T10:26:36;113.55;;;108.05;;
11269;SDS011;5692;48.956;9.200;2023-02-26T10:29:13;115.18;;;109.68;;
11269;SDS011;5692;48.956;9.200;2023-02-26T10:35:16;112.93;;;107.50;;
11269;SDS011;5692;48.956;9.200;2023-02-26T10:37:18;116.30;;;110.70;;
11269;SDS011;5692;48.956;9.200;2023-02-26T10:42:19;112.53;;;107.13;;
11269;SDS011;5692;48.956;9.200;2023-02-26T10:47:18;103.43;;;98.45;;
11269;SDS011;5692;48.956;9.200;2023-02-26T10:52:16;112.97;;;107.57;;
11269;SDS011;5692;48.956;9.200;2023-02-26T10:54:59;102.63;;;97.70;;
11269;SDS011;5692;48.956;9.200;2023-02-26T10:57:28;115.03;;;109.53;;
11269;SDS011;5692;48.956;9.200;2023-02-26T10:59:57;115.05;;;109.55;;
11269;SDS011;5692;48.956;9.200;2023-02-26T11:02:35;112.95;;;107.55;;
11269;SDS011;5692;48.956;9.200;2023-02-26T11:05:02;123.13;;;117.22;;
11269;SDS011;5692;48.956;9.200;2023-02-26T11:07:29;117.30;;;111.70;;
11269;SDS011;5692;48.956;9.200;2023-02-26T11:09:58;122.47;;;116.57;;
11269;SDS011;5692;48.956;9.200;2023-02-26T11:12:25;114.20;;;108.70;;
11269;SDS011;5692;48.956;9.200;2023-02-26T11:14:51;111.13;;;105.78;;
11269;SDS011;5692;48.956;9.200;2023-02-26T11:17:26;104.65;;;99.65;;
11269;SDS011;5692;48.956;9.200;2023-02-26T11:20:12;112.13;;;106.72;;
11269;SDS011;5692;48.956;9.200;2023-02-26T11:22:39;113.13;;;107.70;;
11269;SDS011;5692;48.956;9.200;2023-02-26T11:25:11;113.53;;;108.05;;
11269;SDS011;5692;48.956;9.200;2023-02-26T11:27:37;108.97;;;103.78;;
11269;SDS011;5692;48.956;9.200;2023-02-26T11:30:05;109.45;;;104.15;;
11269;SDS011;5692;48.956;9.200;2023-02-26T11:32:33;103.40;;;98.43;;
11269;SDS011;5692;48.956;9.200;2023-02-26T11:35:00;99.30;;;94.50;;
11269;SDS011;5692;48.956;9.200;2023-02-26T11:37:30;107.40;;;102.20;;
11269;SDS011;5692;48.956;9.200;2023-02-26T11:40:03;111.00;;;105.70;;
11269;SDS011;5692;48.956;9.200;2023-02-26T11:42:45;104.38;;;99.38;;
11269;SDS011;5692;48.956;9.200;2023-02-26T11:45:13;106.65;;;101.55;;
11269;SDS011;5692;48.956;9.200;2023-02-26T11:47:41;113.97;;;108.47;;
11269;SDS011;5692;48.956;9.200;2023-02-26T11:50:14;124.88;;;118.88;;
11269;SDS011;5692;48.956;9.200;2023-02-26T11:53:05;110.95;;;105.65;;
11269;SDS011;5692;48.956;9.200;2023-02-26T11:55:35;111.82;;;106.43;;
11269;SDS011;5692;48.956;9.200;2023-02-26T11:58:03;111.72;;;106.35;;
11269;SDS011;5692;48.956;9.200;2023-02-26T12:00:31;119.97;;;114.20;;
11269;SDS011;5692;48.956;9.200;2023-02-26T12:03:05;111.63;;;106.22;;
11269;SDS011;5692;48.956;9.200;2023-02-26T12:05:35;114.43;;;108.93;;
11269;SDS011;5692;48.956;9.200;2023-02-26T12:08:02;99.53;;;94.75;;
11269;SDS011;5692;48.956;9.200;2023-02-26T12:16:51;111.43;;;106.05;;
11269;SDS011;5692;48.956;9.200;2023-02-26T12:19:13;117.35;;;111.72;;
11269;SDS011;5692;48.956;9.200;2023-02-26T12:21:56;107.18;;;102.03;;
11269;SDS011;5692;48.956;9.200;2023-02-26T12:26:55;116.70;;;111.10;;
11269;SDS011;5692;48.956;9.200;2023-02-26T12:35:01;111.72;;;106.32;;
11269;SDS011;5692;48.956;9.200;2023-02-26T12:37:49;120.63;;;114.82;;
11269;SDS011;5692;48.956;9.200;2023-02-26T12:45:39;115.15;;;109.65;;
11269;SDS011;5692;48.956;9.200;2023-02-26T12:53:36;118.82;;;113.13;;
11269;SDS011;5692;48.956;9.200;2023-02-26T12:58:37;122.60;;;116.70;;
11269;SDS011;5692;48.956;9.200;2023-02-26T13:06:39;115.30;;;109.78;;
11269;SDS011;5692;48.956;9.200;2023-02-26T13:09:16;125.72;;;119.72;;
11269;SDS011;5692;48.956;9.200;2023-02-26T13:19:24;128.32;;;122.13;;
11269;SDS011;5692;48.956;9.200;2023-02-26T13:22:40;115.60;;;110.03;;
11269;SDS011;5692;48.956;9.200;2023-02-26T13:24:50;126.35;;;120.25;;
11269;SDS011;5692;48.956;9.200;2023-02-26T13:27:21;126.70;;;120.60;;
11269;SDS011;5692;48.956;9.200;2023-02-26T13:29:59;118.97;;;113.25;;
11269;SDS011;5692;48.956;9.200;2023-02-26T13:32:31;120.00;;;114.25;;
11269;SDS011;5692;48.956;9.200;2023-02-26T13:35:01;117.03;;;111.43;;
11269;SDS011;5692;48.956;9.200;2023-02-26T13:37:37;121.95;;;116.10;;
11269;SDS011;5692;48.956;9.200;2023-02-26T13:56:12;124.68;;;118.68;;
11269;SDS011;5692;48.956;9.200;2023-02-26T13:58:42;125.72;;;119.72;;
11269;SDS011;5692;48.956;9.200;2023-02-26T14:01:16;129.07;;;122.88;;
11269;SDS011;5692;48.956;9.200;2023-02-26T14:03:52;126.07;;;120.03;;
11269;SDS011;5692;48.956;9.200;2023-02-26T14:06:37;125.05;;;119.05;;
11269;SDS011;5692;48.956;9.200;2023-02-26T14:09:55;137.80;;;131.20;;
11269;SDS011;5692;48.956;9.200;2023-02-26T14:29:43;117.05;;;111.45;;
11269;SDS011;5692;48.956;9.200;2023-02-26T14:34:38;117.65;;;112.00;;
11269;SDS011;5692;48.956;9.200;2023-02-26T14:37:07;110.38;;;105.07;;
11269;SDS011;5692;48.956;9.200;2023-02-26T14:39:38;109.82;;;104.53;;
11269;SDS011;5692;48.956;9.200;2023-02-26T14:42:07;105.80;;;100.70;;
11269;SDS011;5692;48.956;9.200;2023-02-26T14:44:41;112.55;;;107.15;;
11269;SDS011;5692;48.956;9.200;2023-02-26T14:47:10;116.35;;;110.75;;
11269;SDS011;5692;48.956;9.200;2023-02-26T14:49:37;112.22;;;106.82;;
11269;SDS011;5692;48.956;9.200;2023-02-26T14:57:50;114.90;;;109.40;;
11269;SDS011;5692;48.956;9.200;2023-02-26T15:00:41;108.30;;;103.10;;
11269;SDS011;5692;48.956;9.200;2023-02-26T15:11:29;129.95;;;123.75;;
11269;SDS011;5692;48.956;9.200;2023-02-26T15:18:53;114.45;;;108.95;;
11269;SDS011;5692;48.956;9.200;2023-02-26T15:21:24;121.15;;;115.35;;
11269;SDS011;5692;48.956;9.200;2023-02-26T15:23:54;126.93;;;120.82;;
11269;SDS011;5692;48.956;9.200;2023-02-26T15:26:22;133.23;;;126.82;;
11269;SDS011;5692;48.956;9.200;2023-02-26T15:28:49;129.50;;;123.30;;
11269;SDS011;5692;48.956;9.200;2023-02-26T15:31:17;131.20;;;124.90;;
11269;SDS011;5692;48.956;9.200;2023-02-26T15:33:46;124.40;;;118.40;;
11269;SDS011;5692;48.956;9.200;2023-02-26T15:36:13;118.60;;;112.90;;
11269;SDS011;5692;48.956;9.200;2023-02-26T15:38:45;113.25;;;107.80;;
11269;SDS011;5692;48.956;9.200;2023-02-26T15:41:11;120.20;;;114.43;;
11269;SDS011;5692;48.956;9.200;2023-02-26T15:43:39;128.05;;;121.90;;
11269;SDS011;5692;48.956;9.200;2023-02-26T15:46:07;124.10;;;118.15;;
11269;SDS011;5692;48.956;9.200;2023-02-26T15:48:34;129.55;;;123.35;;
11269;SDS011;5692;48.956;9.200;2023-02-26T15:51:05;120.03;;;114.25;;
11269;SDS011;5692;48.956;9.200;2023-02-26T15:53:36;121.30;;;115.50;;
11269;SDS011;5692;48.956;9.200;2023-02-26T15:56:07;124.78;;;118.78;;
11269;SDS011;5692;48.956;9.200;2023-02-26T15:58:40;128.60;;;122.43;;
11269;SDS011;5692;48.956;9.200;2023-02-26T16:01:13;126.65;;;120.55;;
11269;SDS011;5692;48.956;9.200;2023-02-26T16:03:42;127.22;;;121.13;;
11269;SDS011;5692;48.956;9.200;2023-02-26T16:06:12;125.72;;;119.70;;
11269;SDS011;5692;48.956;9.200;2023-02-26T16:08:40;126.78;;;120.68;;
11269;SDS011;5692;48.956;9.200;2023-02-26T16:11:07;129.40;;;123.20;;
11269;SDS011;5692;48.956;9.200;2023-02-26T16:13:36;115.80;;;110.25;;
11269;SDS011;5692;48.956;9.200;2023-02-26T16:16:05;121.13;;;115.32;;
11269;SDS011;5692;48.956;9.200;2023-02-26T16:18:34;106.88;;;101.78;;
11269;SDS011;5692;48.956;9.200;2023-02-26T16:21:01;127.43;;;121.32;;
11269;SDS011;5692;48.956;9.200;2023-02-26T16:23:37;121.53;;;115.72;;
11269;SDS011;5692;48.956;9.200;2023-02-26T16:26:05;118.80;;;113.10;;
11269;SDS011;5692;48.956;9.200;2023-02-26T16:28:42;118.57;;;112.88;;
11269;SDS011;5692;48.956;9.200;2023-02-26T16:31:15;103.72;;;98.72;;
11269;SDS011;5692;48.956;9.200;2023-02-26T16:33:41;111.00;;;105.70;;
11269;SDS011;5692;48.956;9.200;2023-02-26T16:36:14;108.97;;;103.75;;
11269;SDS011;5692;48.956;9.200;2023-02-26T16:41:08;112.47;;;107.07;;
11269;SDS011;5692;48.956;9.200;2023-02-26T16:46:07;104.20;;;99.20;;
11269;SDS011;5692;48.956;9.200;2023-02-26T16:48:36;101.00;;;96.13;;
11269;SDS011;5692;48.956;9.200;2023-02-26T16:51:12;102.43;;;97.53;;
11269;SDS011;5692;48.956;9.200;2023-02-26T16:53:44;107.47;;;102.28;;
11269;SDS011;5692;48.956;9.200;2023-02-26T16:56:14;104.20;;;99.20;;
11269;SDS011;5692;48.956;9.200;2023-02-26T16:59:02;116.00;;;110.40;;
11269;SDS011;5692;48.956;9.200;2023-02-26T17:01:30;110.53;;;105.22;;
11269;SDS011;5692;48.956;9.200;2023-02-26T17:04:00;103.97;;;98.97;;
11269;SDS011;5692;48.956;9.200;2023-02-26T17:06:28;102.18;;;97.28;;
11269;SDS011;5692;48.956;9.200;2023-02-26T17:09:01;100.35;;;95.53;;
11269;SDS011;5692;48.956;9.200;2023-02-26T17:11:28;95.85;;;91.25;;
11269;SDS011;5692;48.956;9.200;2023-02-26T17:14:38;107.53;;;102.32;;
11269;SDS011;5692;48.956;9.200;2023-02-26T17:16:46;98.70;;;93.95;;
11269;SDS011;5692;48.956;9.200;2023-02-26T17:19:12;104.07;;;99.07;;
11269;SDS011;5692;48.956;9.200;2023-02-26T17:21:46;105.68;;;100.57;;
11269;SDS011;5692;48.956;9.200;2023-02-26T17:24:37;99.53;;;94.72;;
11269;SDS011;5692;48.956;9.200;2023-02-26T17:27:16;99.78;;;94.97;;